sensor_id;sensor_type;location;lat;lon;timestamp;P1;durP1;ratioP1;P2;durP2;ratioP2
52380;SDS011;38310;52.796;6.942;2022-11-11T00:01:33;16.20;;;7.97;;
52380;SDS011;38310;52.796;6.942;2022-11-11T00:03:59;12.98;;;7.50;;
52380;SDS011;38310;52.796;6.942;2022-11-11T00:06:26;15.70;;;8.30;;
52380;SDS011;38310;52.796;6.942;2022-11-11T00:08:51;16.23;;;8.85;;
52380;SDS011;38310;52.796;6.942;2022-11-11T00:11:17;13.32;;;8.43;;
52380;SDS011;38310;52.796;6.942;2022-11-11T00:13:43;15.88;;;9.68;;
52380;SDS011;38310;52.796;6.942;2022-11-11T00:16:13;12.90;;;9.05;;
52380;SDS011;38310;52.796;6.942;2022-11-11T00:21:31;18.33;;;10.70;;
52380;SDS011;38310;52.796;6.942;2022-11-11T00:24:25;15.52;;;8.68;;
52380;SDS011;38310;52.796;6.942;2022-11-11T00:27:12;14.82;;;10.10;;
52380;SDS011;38310;52.796;6.942;2022-11-11T00:29:38;16.80;;;10.05;;
52380;SDS011;38310;52.796;6.942;2022-11-11T00:32:05;19.80;;;10.40;;
52380;SDS011;38310;52.796;6.942;2022-11-11T00:34:50;16.02;;;10.02;;
52380;SDS011;38310;52.796;6.942;2022-11-11T00:37:36;15.23;;;9.48;;
52380;SDS011;38310;52.796;6.942;2022-11-11T00:40:03;18.98;;;10.07;;
52380;SDS011;38310;52.796;6.942;2022-11-11T00:42:29;14.23;;;9.20;;
52380;SDS011;38310;52.796;6.942;2022-11-11T00:44:55;19.23;;;10.95;;
52380;SDS011;38310;52.796;6.942;2022-11-11T00:47:20;17.08;;;10.27;;
52380;SDS011;38310;52.796;6.942;2022-11-11T00:52:50;15.45;;;10.40;;
52380;SDS011;38310;52.796;6.942;2022-11-11T00:55:16;13.48;;;9.45;;
52380;SDS011;38310;52.796;6.942;2022-11-11T00:57:41;18.65;;;10.27;;
52380;SDS011;38310;52.796;6.942;2022-11-11T01:00:07;13.65;;;9.85;;
52380;SDS011;38310;52.796;6.942;2022-11-11T01:02:33;22.80;;;10.57;;
52380;SDS011;38310;52.796;6.942;2022-11-11T01:04:59;15.80;;;10.52;;
52380;SDS011;38310;52.796;6.942;2022-11-11T01:07:25;22.92;;;10.23;;
52380;SDS011;38310;52.796;6.942;2022-11-11T01:09:51;15.98;;;10.05;;
52380;SDS011;38310;52.796;6.942;2022-11-11T01:12:16;16.25;;;10.40;;
52380;SDS011;38310;52.796;6.942;2022-11-11T01:14:42;16.80;;;10.13;;
52380;SDS011;38310;52.796;6.942;2022-11-11T01:17:08;19.55;;;10.60;;
52380;SDS011;38310;52.796;6.942;2022-11-11T01:19:34;17.85;;;11.00;;
52380;SDS011;38310;52.796;6.942;2022-11-11T01:22:00;17.98;;;11.18;;
52380;SDS011;38310;52.796;6.942;2022-11-11T01:24:26;15.63;;;10.93;;
52380;SDS011;38310;52.796;6.942;2022-11-11T01:26:52;19.08;;;11.38;;
52380;SDS011;38310;52.796;6.942;2022-11-11T01:29:18;17.77;;;10.90;;
52380;SDS011;38310;52.796;6.942;2022-11-11T01:31:44;16.38;;;11.38;;
52380;SDS011;38310;52.796;6.942;2022-11-11T01:34:09;14.05;;;10.98;;
52380;SDS011;38310;52.796;6.942;2022-11-11T01:36:35;18.77;;;12.40;;
52380;SDS011;38310;52.796;6.942;2022-11-11T01:39:01;21.90;;;12.57;;
52380;SDS011;38310;52.796;6.942;2022-11-11T01:41:31;18.48;;;12.30;;
52380;SDS011;38310;52.796;6.942;2022-11-11T01:46:43;20.23;;;12.18;;
52380;SDS011;38310;52.796;6.942;2022-11-11T01:49:23;20.38;;;11.55;;
52380;SDS011;38310;52.796;6.942;2022-11-11T01:54:52;21.20;;;12.38;;
52380;SDS011;38310;52.796;6.942;2022-11-11T01:57:42;22.52;;;13.75;;
52380;SDS011;38310;52.796;6.942;2022-11-11T02:00:13;21.55;;;13.77;;
52380;SDS011;38310;52.796;6.942;2022-11-11T02:02:45;22.73;;;15.02;;
52380;SDS011;38310;52.796;6.942;2022-11-11T02:05:22;21.20;;;14.32;;
52380;SDS011;38310;52.796;6.942;2022-11-11T02:08:11;20.85;;;14.30;;
52380;SDS011;38310;52.796;6.942;2022-11-11T02:10:56;23.50;;;14.38;;
52380;SDS011;38310;52.796;6.942;2022-11-11T02:13:38;24.75;;;14.73;;
52380;SDS011;38310;52.796;6.942;2022-11-11T02:16:24;23.40;;;14.50;;
52380;SDS011;38310;52.796;6.942;2022-11-11T02:18:50;23.27;;;15.40;;
52380;SDS011;38310;52.796;6.942;2022-11-11T02:21:19;20.80;;;15.27;;
52380;SDS011;38310;52.796;6.942;2022-11-11T02:23:59;30.88;;;15.75;;
52380;SDS011;38310;52.796;6.942;2022-11-11T02:26:27;21.92;;;15.57;;
52380;SDS011;38310;52.796;6.942;2022-11-11T02:28:56;24.75;;;16.90;;
52380;SDS011;38310;52.796;6.942;2022-11-11T02:31:28;28.45;;;16.58;;
52380;SDS011;38310;52.796;6.942;2022-11-11T02:33:55;25.55;;;16.35;;
52380;SDS011;38310;52.796;6.942;2022-11-11T02:36:21;24.58;;;16.83;;
52380;SDS011;38310;52.796;6.942;2022-11-11T02:38:47;26.95;;;16.13;;
52380;SDS011;38310;52.796;6.942;2022-11-11T02:41:13;30.15;;;17.42;;
52380;SDS011;38310;52.796;6.942;2022-11-11T02:46:23;24.40;;;16.90;;
52380;SDS011;38310;52.796;6.942;2022-11-11T02:48:48;25.05;;;16.50;;
52380;SDS011;38310;52.796;6.942;2022-11-11T02:51:14;27.63;;;18.38;;
52380;SDS011;38310;52.796;6.942;2022-11-11T02:53:40;27.73;;;19.02;;
52380;SDS011;38310;52.796;6.942;2022-11-11T02:56:05;27.20;;;17.60;;
52380;SDS011;38310;52.796;6.942;2022-11-11T02:58:31;30.20;;;17.80;;
52380;SDS011;38310;52.796;6.942;2022-11-11T03:00:57;29.65;;;20.25;;
52380;SDS011;38310;52.796;6.942;2022-11-11T03:03:23;32.83;;;17.80;;
52380;SDS011;38310;52.796;6.942;2022-11-11T03:05:48;32.63;;;18.15;;
52380;SDS011;38310;52.796;6.942;2022-11-11T03:08:14;29.33;;;18.63;;
52380;SDS011;38310;52.796;6.942;2022-11-11T03:10:40;31.13;;;18.17;;
52380;SDS011;38310;52.796;6.942;2022-11-11T03:13:06;29.92;;;19.00;;
52380;SDS011;38310;52.796;6.942;2022-11-11T03:15:31;26.08;;;17.80;;
52380;SDS011;38310;52.796;6.942;2022-11-11T03:17:57;26.38;;;17.90;;
52380;SDS011;38310;52.796;6.942;2022-11-11T03:20:23;28.70;;;18.95;;
52380;SDS011;38310;52.796;6.942;2022-11-11T03:23:11;30.08;;;18.80;;
52380;SDS011;38310;52.796;6.942;2022-11-11T03:25:40;31.55;;;19.98;;
52380;SDS011;38310;52.796;6.942;2022-11-11T03:28:11;30.42;;;19.02;;
52380;SDS011;38310;52.796;6.942;2022-11-11T03:30:49;32.17;;;19.40;;
52380;SDS011;38310;52.796;6.942;2022-11-11T03:33:15;33.53;;;20.10;;
52380;SDS011;38310;52.796;6.942;2022-11-11T03:35:42;32.28;;;20.73;;
52380;SDS011;38310;52.796;6.942;2022-11-11T03:38:11;33.30;;;20.58;;
52380;SDS011;38310;52.796;6.942;2022-11-11T03:40:47;30.52;;;20.55;;
52380;SDS011;38310;52.796;6.942;2022-11-11T03:43:14;27.13;;;18.90;;
52380;SDS011;38310;52.796;6.942;2022-11-11T03:45:41;37.20;;;20.10;;
52380;SDS011;38310;52.796;6.942;2022-11-11T03:48:08;28.77;;;18.50;;
52380;SDS011;38310;52.796;6.942;2022-11-11T03:50:34;28.48;;;20.88;;
52380;SDS011;38310;52.796;6.942;2022-11-11T03:53:00;32.85;;;21.98;;
52380;SDS011;38310;52.796;6.942;2022-11-11T03:55:26;31.67;;;21.05;;
52380;SDS011;38310;52.796;6.942;2022-11-11T03:57:52;28.25;;;19.63;;
52380;SDS011;38310;52.796;6.942;2022-11-11T04:00:19;34.17;;;20.80;;
52380;SDS011;38310;52.796;6.942;2022-11-11T04:02:46;32.83;;;20.65;;
52380;SDS011;38310;52.796;6.942;2022-11-11T04:05:31;33.72;;;21.58;;
52380;SDS011;38310;52.796;6.942;2022-11-11T04:08:16;34.25;;;21.83;;
52380;SDS011;38310;52.796;6.942;2022-11-11T04:11:07;33.80;;;20.92;;
52380;SDS011;38310;52.796;6.942;2022-11-11T04:13:36;32.90;;;20.30;;
52380;SDS011;38310;52.796;6.942;2022-11-11T04:16:22;32.08;;;21.27;;
52380;SDS011;38310;52.796;6.942;2022-11-11T04:18:47;33.50;;;22.30;;
52380;SDS011;38310;52.796;6.942;2022-11-11T04:21:31;35.75;;;22.10;;
52380;SDS011;38310;52.796;6.942;2022-11-11T04:24:10;36.00;;;21.88;;
52380;SDS011;38310;52.796;6.942;2022-11-11T04:26:56;34.35;;;22.30;;
52380;SDS011;38310;52.796;6.942;2022-11-11T04:29:23;33.08;;;20.95;;
52380;SDS011;38310;52.796;6.942;2022-11-11T04:34:43;32.55;;;20.90;;
52380;SDS011;38310;52.796;6.942;2022-11-11T04:37:10;33.85;;;21.95;;
52380;SDS011;38310;52.796;6.942;2022-11-11T04:39:36;31.88;;;20.85;;
52380;SDS011;38310;52.796;6.942;2022-11-11T04:42:21;36.45;;;22.27;;
52380;SDS011;38310;52.796;6.942;2022-11-11T04:44:46;30.30;;;19.90;;
52380;SDS011;38310;52.796;6.942;2022-11-11T04:47:31;35.47;;;21.45;;
52380;SDS011;38310;52.796;6.942;2022-11-11T04:49:57;33.38;;;22.05;;
52380;SDS011;38310;52.796;6.942;2022-11-11T04:52:22;32.58;;;20.48;;
52380;SDS011;38310;52.796;6.942;2022-11-11T04:54:51;35.90;;;20.52;;
52380;SDS011;38310;52.796;6.942;2022-11-11T04:57:39;32.03;;;20.80;;
52380;SDS011;38310;52.796;6.942;2022-11-11T05:00:07;36.40;;;20.63;;
52380;SDS011;38310;52.796;6.942;2022-11-11T05:02:34;31.80;;;20.23;;
52380;SDS011;38310;52.796;6.942;2022-11-11T05:05:19;34.58;;;19.95;;
52380;SDS011;38310;52.796;6.942;2022-11-11T05:07:46;31.65;;;20.98;;
52380;SDS011;38310;52.796;6.942;2022-11-11T05:10:30;46.00;;;20.35;;
52380;SDS011;38310;52.796;6.942;2022-11-11T05:12:55;29.88;;;19.42;;
52380;SDS011;38310;52.796;6.942;2022-11-11T05:15:42;31.08;;;20.80;;
52380;SDS011;38310;52.796;6.942;2022-11-11T05:18:27;33.22;;;20.38;;
52380;SDS011;38310;52.796;6.942;2022-11-11T05:21:15;31.00;;;20.95;;
52380;SDS011;38310;52.796;6.942;2022-11-11T05:23:58;30.20;;;18.65;;
52380;SDS011;38310;52.796;6.942;2022-11-11T05:29:07;30.65;;;20.27;;
52380;SDS011;38310;52.796;6.942;2022-11-11T05:31:33;33.50;;;19.90;;
52380;SDS011;38310;52.796;6.942;2022-11-11T05:33:58;29.40;;;18.75;;
52380;SDS011;38310;52.796;6.942;2022-11-11T05:36:24;33.63;;;19.45;;
52380;SDS011;38310;52.796;6.942;2022-11-11T05:38:50;31.83;;;19.23;;
52380;SDS011;38310;52.796;6.942;2022-11-11T05:41:15;31.17;;;20.00;;
52380;SDS011;38310;52.796;6.942;2022-11-11T05:43:41;31.90;;;18.88;;
52380;SDS011;38310;52.796;6.942;2022-11-11T05:46:07;33.53;;;20.48;;
52380;SDS011;38310;52.796;6.942;2022-11-11T05:48:34;33.13;;;20.45;;
52380;SDS011;38310;52.796;6.942;2022-11-11T05:51:19;32.58;;;20.08;;
52380;SDS011;38310;52.796;6.942;2022-11-11T05:53:52;32.83;;;18.65;;
52380;SDS011;38310;52.796;6.942;2022-11-11T05:56:18;28.05;;;19.25;;
52380;SDS011;38310;52.796;6.942;2022-11-11T05:58:43;31.98;;;19.80;;
52380;SDS011;38310;52.796;6.942;2022-11-11T06:01:09;32.28;;;19.55;;
52380;SDS011;38310;52.796;6.942;2022-11-11T06:03:35;33.88;;;19.52;;
52380;SDS011;38310;52.796;6.942;2022-11-11T06:06:00;29.25;;;17.60;;
52380;SDS011;38310;52.796;6.942;2022-11-11T06:08:26;30.92;;;18.38;;
52380;SDS011;38310;52.796;6.942;2022-11-11T06:10:51;28.40;;;19.35;;
52380;SDS011;38310;52.796;6.942;2022-11-11T06:13:17;33.00;;;19.90;;
52380;SDS011;38310;52.796;6.942;2022-11-11T06:15:43;30.92;;;18.05;;
52380;SDS011;38310;52.796;6.942;2022-11-11T06:18:09;33.42;;;18.45;;
52380;SDS011;38310;52.796;6.942;2022-11-11T06:20:34;32.22;;;18.90;;
52380;SDS011;38310;52.796;6.942;2022-11-11T06:23:01;28.73;;;17.52;;
52380;SDS011;38310;52.796;6.942;2022-11-11T06:25:31;30.98;;;19.52;;
52380;SDS011;38310;52.796;6.942;2022-11-11T06:28:17;30.45;;;17.63;;
52380;SDS011;38310;52.796;6.942;2022-11-11T06:30:43;33.17;;;18.60;;
52380;SDS011;38310;52.796;6.942;2022-11-11T06:33:10;29.17;;;17.80;;
52380;SDS011;38310;52.796;6.942;2022-11-11T06:35:36;28.88;;;17.92;;
52380;SDS011;38310;52.796;6.942;2022-11-11T06:38:03;28.92;;;18.00;;
52380;SDS011;38310;52.796;6.942;2022-11-11T06:40:30;32.00;;;17.90;;
52380;SDS011;38310;52.796;6.942;2022-11-11T06:42:56;28.85;;;17.23;;
52380;SDS011;38310;52.796;6.942;2022-11-11T06:45:25;28.67;;;18.00;;
52380;SDS011;38310;52.796;6.942;2022-11-11T06:47:52;30.42;;;17.92;;
52380;SDS011;38310;52.796;6.942;2022-11-11T06:50:18;32.00;;;18.58;;
52380;SDS011;38310;52.796;6.942;2022-11-11T06:52:44;27.20;;;17.58;;
52380;SDS011;38310;52.796;6.942;2022-11-11T06:55:10;25.77;;;17.17;;
52380;SDS011;38310;52.796;6.942;2022-11-11T06:57:36;26.73;;;17.90;;
52380;SDS011;38310;52.796;6.942;2022-11-11T07:00:06;28.40;;;18.50;;
52380;SDS011;38310;52.796;6.942;2022-11-11T07:02:32;27.77;;;17.35;;
52380;SDS011;38310;52.796;6.942;2022-11-11T07:04:58;25.85;;;16.75;;
52380;SDS011;38310;52.796;6.942;2022-11-11T07:07:24;26.48;;;16.48;;
52380;SDS011;38310;52.796;6.942;2022-11-11T07:09:50;25.73;;;17.27;;
52380;SDS011;38310;52.796;6.942;2022-11-11T07:12:16;35.75;;;18.73;;
52380;SDS011;38310;52.796;6.942;2022-11-11T07:14:42;32.58;;;17.98;;
52380;SDS011;38310;52.796;6.942;2022-11-11T07:17:08;27.20;;;17.33;;
52380;SDS011;38310;52.796;6.942;2022-11-11T07:19:34;27.40;;;17.42;;
52380;SDS011;38310;52.796;6.942;2022-11-11T07:21:59;27.98;;;16.65;;
52380;SDS011;38310;52.796;6.942;2022-11-11T07:24:25;26.63;;;16.92;;
52380;SDS011;38310;52.796;6.942;2022-11-11T07:26:51;32.13;;;19.27;;
52380;SDS011;38310;52.796;6.942;2022-11-11T07:29:17;27.80;;;17.95;;
52380;SDS011;38310;52.796;6.942;2022-11-11T07:31:44;26.73;;;18.30;;
52380;SDS011;38310;52.796;6.942;2022-11-11T07:34:10;26.65;;;16.40;;
52380;SDS011;38310;52.796;6.942;2022-11-11T07:36:35;26.75;;;17.30;;
52380;SDS011;38310;52.796;6.942;2022-11-11T07:39:01;27.27;;;17.73;;
52380;SDS011;38310;52.796;6.942;2022-11-11T07:41:27;24.10;;;16.23;;
52380;SDS011;38310;52.796;6.942;2022-11-11T07:43:52;25.15;;;17.10;;
52380;SDS011;38310;52.796;6.942;2022-11-11T07:46:18;25.98;;;18.25;;
52380;SDS011;38310;52.796;6.942;2022-11-11T07:48:44;26.70;;;17.80;;
52380;SDS011;38310;52.796;6.942;2022-11-11T07:51:09;27.17;;;16.40;;
52380;SDS011;38310;52.796;6.942;2022-11-11T07:53:35;31.25;;;16.88;;
52380;SDS011;38310;52.796;6.942;2022-11-11T07:56:01;30.25;;;16.60;;
52380;SDS011;38310;52.796;6.942;2022-11-11T07:58:27;28.85;;;17.92;;
52380;SDS011;38310;52.796;6.942;2022-11-11T08:00:52;29.15;;;17.73;;
52380;SDS011;38310;52.796;6.942;2022-11-11T08:03:18;24.65;;;17.05;;
52380;SDS011;38310;52.796;6.942;2022-11-11T08:05:44;30.80;;;17.48;;
52380;SDS011;38310;52.796;6.942;2022-11-11T08:08:09;25.02;;;16.17;;
52380;SDS011;38310;52.796;6.942;2022-11-11T08:10:35;28.05;;;16.92;;
52380;SDS011;38310;52.796;6.942;2022-11-11T08:13:02;28.15;;;16.88;;
52380;SDS011;38310;52.796;6.942;2022-11-11T08:15:46;25.90;;;16.88;;
52380;SDS011;38310;52.796;6.942;2022-11-11T08:18:13;29.40;;;16.15;;
52380;SDS011;38310;52.796;6.942;2022-11-11T08:20:38;27.02;;;15.80;;
52380;SDS011;38310;52.796;6.942;2022-11-11T08:23:04;28.13;;;16.42;;
52380;SDS011;38310;52.796;6.942;2022-11-11T08:25:34;29.92;;;17.17;;
52380;SDS011;38310;52.796;6.942;2022-11-11T08:28:01;27.30;;;16.20;;
52380;SDS011;38310;52.796;6.942;2022-11-11T08:30:28;27.70;;;16.30;;
52380;SDS011;38310;52.796;6.942;2022-11-11T08:32:58;29.27;;;17.23;;
52380;SDS011;38310;52.796;6.942;2022-11-11T08:35:24;27.42;;;16.38;;
52380;SDS011;38310;52.796;6.942;2022-11-11T08:37:51;35.72;;;16.92;;
52380;SDS011;38310;52.796;6.942;2022-11-11T08:40:17;26.17;;;17.17;;
52380;SDS011;38310;52.796;6.942;2022-11-11T08:42:43;28.85;;;17.60;;
52380;SDS011;38310;52.796;6.942;2022-11-11T08:45:09;28.60;;;16.48;;
52380;SDS011;38310;52.796;6.942;2022-11-11T08:47:35;29.27;;;16.88;;
52380;SDS011;38310;52.796;6.942;2022-11-11T08:50:01;24.20;;;15.65;;
52380;SDS011;38310;52.796;6.942;2022-11-11T08:52:27;26.33;;;16.13;;
52380;SDS011;38310;52.796;6.942;2022-11-11T08:54:53;26.35;;;17.30;;
52380;SDS011;38310;52.796;6.942;2022-11-11T08:57:19;28.33;;;17.00;;
52380;SDS011;38310;52.796;6.942;2022-11-11T08:59:44;26.90;;;16.05;;
52380;SDS011;38310;52.796;6.942;2022-11-11T09:02:10;22.50;;;15.27;;
52380;SDS011;38310;52.796;6.942;2022-11-11T09:04:37;22.88;;;15.05;;
52380;SDS011;38310;52.796;6.942;2022-11-11T09:07:04;26.73;;;16.17;;
52380;SDS011;38310;52.796;6.942;2022-11-11T09:09:34;25.38;;;17.27;;
52380;SDS011;38310;52.796;6.942;2022-11-11T09:12:00;27.92;;;17.13;;
52380;SDS011;38310;52.796;6.942;2022-11-11T09:14:26;28.00;;;17.52;;
52380;SDS011;38310;52.796;6.942;2022-11-11T09:16:51;26.20;;;16.90;;
52380;SDS011;38310;52.796;6.942;2022-11-11T09:19:17;27.92;;;17.75;;
52380;SDS011;38310;52.796;6.942;2022-11-11T09:21:43;29.98;;;17.70;;
52380;SDS011;38310;52.796;6.942;2022-11-11T09:24:09;29.52;;;19.35;;
52380;SDS011;38310;52.796;6.942;2022-11-11T09:26:35;33.30;;;17.73;;
52380;SDS011;38310;52.796;6.942;2022-11-11T09:29:00;33.45;;;19.13;;
52380;SDS011;38310;52.796;6.942;2022-11-11T09:31:26;30.55;;;18.67;;
52380;SDS011;38310;52.796;6.942;2022-11-11T09:33:52;39.33;;;19.85;;
52380;SDS011;38310;52.796;6.942;2022-11-11T09:36:18;28.77;;;17.35;;
52380;SDS011;38310;52.796;6.942;2022-11-11T09:38:44;31.52;;;17.83;;
52380;SDS011;38310;52.796;6.942;2022-11-11T09:46:44;34.05;;;17.30;;
52380;SDS011;38310;52.796;6.942;2022-11-11T09:54:42;33.42;;;18.25;;
52380;SDS011;38310;52.796;6.942;2022-11-11T09:57:48;31.52;;;17.77;;
52380;SDS011;38310;52.796;6.942;2022-11-11T10:00:28;30.50;;;17.52;;
52380;SDS011;38310;52.796;6.942;2022-11-11T10:05:45;31.08;;;17.40;;
52380;SDS011;38310;52.796;6.942;2022-11-11T10:08:17;28.35;;;18.42;;
52380;SDS011;38310;52.796;6.942;2022-11-11T10:10:50;29.17;;;17.13;;
52380;SDS011;38310;52.796;6.942;2022-11-11T10:13:24;28.17;;;17.33;;
52380;SDS011;38310;52.796;6.942;2022-11-11T10:21:25;22.60;;;14.48;;
52380;SDS011;38310;52.796;6.942;2022-11-11T10:24:01;19.33;;;13.95;;
52380;SDS011;38310;52.796;6.942;2022-11-11T10:26:39;21.63;;;14.30;;
52380;SDS011;38310;52.796;6.942;2022-11-11T10:29:12;23.55;;;14.23;;
52380;SDS011;38310;52.796;6.942;2022-11-11T10:31:42;22.02;;;13.85;;
52380;SDS011;38310;52.796;6.942;2022-11-11T10:34:12;21.80;;;13.75;;
52380;SDS011;38310;52.796;6.942;2022-11-11T10:36:50;21.35;;;13.57;;
52380;SDS011;38310;52.796;6.942;2022-11-11T10:39:26;20.25;;;13.32;;
52380;SDS011;38310;52.796;6.942;2022-11-11T10:42:10;17.48;;;12.32;;
52380;SDS011;38310;52.796;6.942;2022-11-11T10:44:42;20.23;;;13.25;;
52380;SDS011;38310;52.796;6.942;2022-11-11T10:50:07;17.98;;;11.90;;
52380;SDS011;38310;52.796;6.942;2022-11-11T10:55:10;18.30;;;11.75;;
52380;SDS011;38310;52.796;6.942;2022-11-11T10:57:45;18.50;;;11.95;;
52380;SDS011;38310;52.796;6.942;2022-11-11T11:00:14;20.85;;;12.88;;
52380;SDS011;38310;52.796;6.942;2022-11-11T11:03:11;18.50;;;11.75;;
52380;SDS011;38310;52.796;6.942;2022-11-11T11:05:48;16.85;;;11.68;;
52380;SDS011;38310;52.796;6.942;2022-11-11T11:08:27;16.75;;;11.13;;
52380;SDS011;38310;52.796;6.942;2022-11-11T11:11:08;17.20;;;11.30;;
52380;SDS011;38310;52.796;6.942;2022-11-11T11:13:45;15.57;;;11.05;;
52380;SDS011;38310;52.796;6.942;2022-11-11T11:16:34;17.52;;;11.30;;
52380;SDS011;38310;52.796;6.942;2022-11-11T11:24:26;13.95;;;10.27;;
52380;SDS011;38310;52.796;6.942;2022-11-11T11:27:00;15.25;;;10.23;;
52380;SDS011;38310;52.796;6.942;2022-11-11T11:32:19;15.35;;;10.00;;
52380;SDS011;38310;52.796;6.942;2022-11-11T11:34:54;12.88;;;9.02;;
52380;SDS011;38310;52.796;6.942;2022-11-11T11:37:22;16.52;;;10.20;;
52380;SDS011;38310;52.796;6.942;2022-11-11T11:39:59;13.20;;;9.23;;
52380;SDS011;38310;52.796;6.942;2022-11-11T11:56:41;12.45;;;8.48;;
52380;SDS011;38310;52.796;6.942;2022-11-11T11:59:17;14.02;;;8.63;;
52380;SDS011;38310;52.796;6.942;2022-11-11T12:01:59;13.68;;;8.93;;
52380;SDS011;38310;52.796;6.942;2022-11-11T12:04:46;13.95;;;8.23;;
52380;SDS011;38310;52.796;6.942;2022-11-11T12:15:47;11.48;;;8.50;;
52380;SDS011;38310;52.796;6.942;2022-11-11T12:18:30;12.30;;;7.85;;
52380;SDS011;38310;52.796;6.942;2022-11-11T12:21:05;12.65;;;8.38;;
52380;SDS011;38310;52.796;6.942;2022-11-11T12:45:41;14.55;;;8.02;;
52380;SDS011;38310;52.796;6.942;2022-11-11T12:50:58;15.55;;;7.97;;
52380;SDS011;38310;52.796;6.942;2022-11-11T12:58:42;10.00;;;6.50;;
52380;SDS011;38310;52.796;6.942;2022-11-11T13:12:02;11.60;;;6.38;;
52380;SDS011;38310;52.796;6.942;2022-11-11T13:14:36;9.88;;;6.68;;
52380;SDS011;38310;52.796;6.942;2022-11-11T13:17:25;12.35;;;6.95;;
52380;SDS011;38310;52.796;6.942;2022-11-11T13:19:59;11.30;;;6.75;;
52380;SDS011;38310;52.796;6.942;2022-11-11T13:22:42;9.80;;;5.82;;
52380;SDS011;38310;52.796;6.942;2022-11-11T13:25:12;11.50;;;6.45;;
52380;SDS011;38310;52.796;6.942;2022-11-11T13:27:49;10.65;;;5.85;;
52380;SDS011;38310;52.796;6.942;2022-11-11T13:33:18;10.15;;;5.82;;
52380;SDS011;38310;52.796;6.942;2022-11-11T13:41:27;9.07;;;5.60;;
52380;SDS011;38310;52.796;6.942;2022-11-11T13:43:59;11.80;;;5.60;;
52380;SDS011;38310;52.796;6.942;2022-11-11T13:46:32;8.83;;;5.87;;
52380;SDS011;38310;52.796;6.942;2022-11-11T13:49:09;10.63;;;5.93;;
52380;SDS011;38310;52.796;6.942;2022-11-11T13:51:45;9.50;;;5.90;;
52380;SDS011;38310;52.796;6.942;2022-11-11T13:54:21;11.48;;;6.20;;
52380;SDS011;38310;52.796;6.942;2022-11-11T13:57:03;11.20;;;5.85;;
52380;SDS011;38310;52.796;6.942;2022-11-11T13:59:40;8.30;;;5.72;;
52380;SDS011;38310;52.796;6.942;2022-11-11T14:10:54;8.75;;;5.40;;
52380;SDS011;38310;52.796;6.942;2022-11-11T14:15:45;9.85;;;5.57;;
52380;SDS011;38310;52.796;6.942;2022-11-11T14:20:41;10.30;;;5.95;;
52380;SDS011;38310;52.796;6.942;2022-11-11T14:25:46;9.18;;;5.57;;
52380;SDS011;38310;52.796;6.942;2022-11-11T14:30:47;9.23;;;5.50;;
52380;SDS011;38310;52.796;6.942;2022-11-11T14:33:15;17.17;;;7.18;;
52380;SDS011;38310;52.796;6.942;2022-11-11T14:38:25;10.48;;;5.45;;
52380;SDS011;38310;52.796;6.942;2022-11-11T14:55:10;9.60;;;5.35;;
52380;SDS011;38310;52.796;6.942;2022-11-11T14:57:38;9.23;;;5.82;;
52380;SDS011;38310;52.796;6.942;2022-11-11T15:00:19;9.27;;;5.70;;
52380;SDS011;38310;52.796;6.942;2022-11-11T15:05:43;8.82;;;5.70;;
52380;SDS011;38310;52.796;6.942;2022-11-11T15:08:23;10.23;;;5.22;;
52380;SDS011;38310;52.796;6.942;2022-11-11T15:16:48;9.70;;;5.47;;
52380;SDS011;38310;52.796;6.942;2022-11-11T15:32:54;11.55;;;7.20;;
52380;SDS011;38310;52.796;6.942;2022-11-11T15:35:59;13.88;;;7.13;;
52380;SDS011;38310;52.796;6.942;2022-11-11T15:38:28;11.35;;;6.60;;
52380;SDS011;38310;52.796;6.942;2022-11-11T15:40:55;9.80;;;6.43;;
52380;SDS011;38310;52.796;6.942;2022-11-11T15:43:26;9.23;;;6.40;;
52380;SDS011;38310;52.796;6.942;2022-11-11T15:46:03;9.77;;;5.82;;
52380;SDS011;38310;52.796;6.942;2022-11-11T15:51:31;10.35;;;6.68;;
52380;SDS011;38310;52.796;6.942;2022-11-11T15:56:57;10.60;;;6.88;;
52380;SDS011;38310;52.796;6.942;2022-11-11T15:59:24;11.48;;;7.35;;
52380;SDS011;38310;52.796;6.942;2022-11-11T16:01:55;12.52;;;7.68;;
52380;SDS011;38310;52.796;6.942;2022-11-11T16:04:23;13.85;;;6.75;;
52380;SDS011;38310;52.796;6.942;2022-11-11T16:06:49;17.08;;;6.50;;
52380;SDS011;38310;52.796;6.942;2022-11-11T16:09:17;16.17;;;6.63;;
52380;SDS011;38310;52.796;6.942;2022-11-11T16:11:48;11.80;;;7.23;;
52380;SDS011;38310;52.796;6.942;2022-11-11T16:14:27;12.30;;;6.47;;
52380;SDS011;38310;52.796;6.942;2022-11-11T16:16:57;12.40;;;6.50;;
52380;SDS011;38310;52.796;6.942;2022-11-11T16:19:31;11.52;;;7.45;;
52380;SDS011;38310;52.796;6.942;2022-11-11T16:24:50;11.70;;;6.60;;
52380;SDS011;38310;52.796;6.942;2022-11-11T16:27:21;9.57;;;6.55;;
52380;SDS011;38310;52.796;6.942;2022-11-11T16:29:52;9.80;;;6.13;;
52380;SDS011;38310;52.796;6.942;2022-11-11T16:34:52;12.95;;;7.03;;
52380;SDS011;38310;52.796;6.942;2022-11-11T16:37:18;10.82;;;6.25;;
52380;SDS011;38310;52.796;6.942;2022-11-11T16:39:45;13.93;;;7.85;;
52380;SDS011;38310;52.796;6.942;2022-11-11T16:42:27;13.02;;;6.85;;
52380;SDS011;38310;52.796;6.942;2022-11-11T16:52:44;11.55;;;6.70;;
52380;SDS011;38310;52.796;6.942;2022-11-11T16:58:01;9.88;;;6.35;;
52380;SDS011;38310;52.796;6.942;2022-11-11T17:00:35;10.63;;;6.35;;
52380;SDS011;38310;52.796;6.942;2022-11-11T17:03:13;9.43;;;6.13;;
52380;SDS011;38310;52.796;6.942;2022-11-11T17:05:52;13.45;;;6.70;;
52380;SDS011;38310;52.796;6.942;2022-11-11T17:08:35;9.85;;;6.50;;
52380;SDS011;38310;52.796;6.942;2022-11-11T17:11:04;11.40;;;6.68;;
52380;SDS011;38310;52.796;6.942;2022-11-11T17:13:32;10.95;;;6.88;;
52380;SDS011;38310;52.796;6.942;2022-11-11T17:15:59;12.43;;;5.93;;
52380;SDS011;38310;52.796;6.942;2022-11-11T17:18:40;14.27;;;7.20;;
52380;SDS011;38310;52.796;6.942;2022-11-11T17:21:06;11.15;;;6.38;;
52380;SDS011;38310;52.796;6.942;2022-11-11T17:23:32;10.40;;;6.72;;
52380;SDS011;38310;52.796;6.942;2022-11-11T17:25:58;9.18;;;6.25;;
52380;SDS011;38310;52.796;6.942;2022-11-11T17:28:32;10.70;;;7.15;;
52380;SDS011;38310;52.796;6.942;2022-11-11T17:31:03;12.63;;;6.78;;
52380;SDS011;38310;52.796;6.942;2022-11-11T17:35:58;10.25;;;6.93;;
52380;SDS011;38310;52.796;6.942;2022-11-11T17:38:25;12.30;;;6.50;;
52380;SDS011;38310;52.796;6.942;2022-11-11T17:40:52;12.00;;;7.15;;
52380;SDS011;38310;52.796;6.942;2022-11-11T17:43:17;11.57;;;7.18;;
52380;SDS011;38310;52.796;6.942;2022-11-11T17:45:43;10.85;;;6.78;;
52380;SDS011;38310;52.796;6.942;2022-11-11T17:48:10;10.23;;;6.78;;
52380;SDS011;38310;52.796;6.942;2022-11-11T17:50:36;12.13;;;7.13;;
52380;SDS011;38310;52.796;6.942;2022-11-11T17:53:04;12.15;;;6.60;;
52380;SDS011;38310;52.796;6.942;2022-11-11T17:55:31;14.57;;;8.35;;
52380;SDS011;38310;52.796;6.942;2022-11-11T17:57:57;11.60;;;7.13;;
52380;SDS011;38310;52.796;6.942;2022-11-11T18:00:24;12.38;;;7.97;;
52380;SDS011;38310;52.796;6.942;2022-11-11T18:02:50;14.43;;;8.00;;
52380;SDS011;38310;52.796;6.942;2022-11-11T18:05:16;11.30;;;7.30;;
52380;SDS011;38310;52.796;6.942;2022-11-11T18:07:42;9.48;;;7.05;;
52380;SDS011;38310;52.796;6.942;2022-11-11T18:10:08;10.45;;;7.68;;
52380;SDS011;38310;52.796;6.942;2022-11-11T18:12:35;12.07;;;8.20;;